sensor_id;sensor_type;location;lat;lon;timestamp;temperature;humidity
28823;DHT22;15961;54.678;9.110;2022-11-20T00:01:48;1.60;99.90
28823;DHT22;15961;54.678;9.110;2022-11-20T00:04:13;1.60;99.90
28823;DHT22;15961;54.678;9.110;2022-11-20T00:06:39;1.60;99.90
28823;DHT22;15961;54.678;9.110;2022-11-20T00:09:04;1.50;99.90
28823;DHT22;15961;54.678;9.110;2022-11-20T00:11:31;1.50;99.90
28823;DHT22;15961;54.678;9.110;2022-11-20T00:13:59;1.50;99.90
28823;DHT22;15961;54.678;9.110;2022-11-20T00:16:26;1.50;99.90
28823;DHT22;15961;54.678;9.110;2022-11-20T00:18:53;1.50;99.90
28823;DHT22;15961;54.678;9.110;2022-11-20T00:21:24;1.50;99.90
28823;DHT22;15961;54.678;9.110;2022-11-20T00:23:51;1.50;99.90
28823;DHT22;15961;54.678;9.110;2022-11-20T00:26:20;1.40;99.90
28823;DHT22;15961;54.678;9.110;2022-11-20T00:28:50;1.50;99.90
28823;DHT22;15961;54.678;9.110;2022-11-20T00:31:17;1.40;99.90
28823;DHT22;15961;54.678;9.110;2022-11-20T00:33:43;1.40;99.90
28823;DHT22;15961;54.678;9.110;2022-11-20T00:36:11;1.40;99.90
28823;DHT22;15961;54.678;9.110;2022-11-20T00:38:37;1.40;99.90
28823;DHT22;15961;54.678;9.110;2022-11-20T00:41:05;1.40;99.90
28823;DHT22;15961;54.678;9.110;2022-11-20T00:43:31;1.40;99.90
28823;DHT22;15961;54.678;9.110;2022-11-20T00:46:10;1.40;99.90
28823;DHT22;15961;54.678;9.110;2022-11-20T00:48:37;1.40;99.90
28823;DHT22;15961;54.678;9.110;2022-11-20T00:51:03;1.40;99.90
28823;DHT22;15961;54.678;9.110;2022-11-20T00:53:29;1.40;99.90
28823;DHT22;15961;54.678;9.110;2022-11-20T00:56:02;1.40;99.90
28823;DHT22;15961;54.678;9.110;2022-11-20T00:58:33;1.40;99.90
28823;DHT22;15961;54.678;9.110;2022-11-20T01:01:08;1.40;99.90
28823;DHT22;15961;54.678;9.110;2022-11-20T01:03:36;1.40;99.90
28823;DHT22;15961;54.678;9.110;2022-11-20T01:06:03;1.40;99.90
28823;DHT22;15961;54.678;9.110;2022-11-20T01:08:31;1.30;99.90
28823;DHT22;15961;54.678;9.110;2022-11-20T01:11:01;1.30;99.90
28823;DHT22;15961;54.678;9.110;2022-11-20T01:13:29;1.30;99.90
28823;DHT22;15961;54.678;9.110;2022-11-20T01:18:41;1.20;99.90
28823;DHT22;15961;54.678;9.110;2022-11-20T01:21:10;1.20;99.90
28823;DHT22;15961;54.678;9.110;2022-11-20T01:23:37;1.20;99.90
28823;DHT22;15961;54.678;9.110;2022-11-20T01:26:06;1.20;99.90
28823;DHT22;15961;54.678;9.110;2022-11-20T01:28:32;1.10;99.90
28823;DHT22;15961;54.678;9.110;2022-11-20T01:31:01;1.10;99.90
28823;DHT22;15961;54.678;9.110;2022-11-20T01:33:27;1.10;99.90
28823;DHT22;15961;54.678;9.110;2022-11-20T01:35:53;1.10;99.90
28823;DHT22;15961;54.678;9.110;2022-11-20T01:38:27;1.10;99.90
28823;DHT22;15961;54.678;9.110;2022-11-20T01:40:56;1.00;99.90
28823;DHT22;15961;54.678;9.110;2022-11-20T01:43:22;0.90;99.90
28823;DHT22;15961;54.678;9.110;2022-11-20T01:46:15;0.90;99.90
28823;DHT22;15961;54.678;9.110;2022-11-20T01:48:47;0.90;99.90
28823;DHT22;15961;54.678;9.110;2022-11-20T01:51:43;0.90;99.90
28823;DHT22;15961;54.678;9.110;2022-11-20T01:54:09;0.90;99.90
28823;DHT22;15961;54.678;9.110;2022-11-20T01:56:39;0.90;99.90
28823;DHT22;15961;54.678;9.110;2022-11-20T01:59:07;0.80;99.90
28823;DHT22;15961;54.678;9.110;2022-11-20T02:01:33;0.90;99.90
28823;DHT22;15961;54.678;9.110;2022-11-20T02:04:00;0.80;99.90
28823;DHT22;15961;54.678;9.110;2022-11-20T02:06:43;0.90;99.90
28823;DHT22;15961;54.678;9.110;2022-11-20T02:09:09;0.90;99.90
28823;DHT22;15961;54.678;9.110;2022-11-20T02:11:35;0.90;99.90
28823;DHT22;15961;54.678;9.110;2022-11-20T02:14:01;0.80;99.90
28823;DHT22;15961;54.678;9.110;2022-11-20T02:18:53;0.70;99.90
28823;DHT22;15961;54.678;9.110;2022-11-20T02:21:49;0.80;99.90
28823;DHT22;15961;54.678;9.110;2022-11-20T02:24:19;0.80;99.90
28823;DHT22;15961;54.678;9.110;2022-11-20T02:27:01;0.70;99.90
28823;DHT22;15961;54.678;9.110;2022-11-20T02:29:44;0.70;99.90
28823;DHT22;15961;54.678;9.110;2022-11-20T02:32:24;0.70;99.90
28823;DHT22;15961;54.678;9.110;2022-11-20T02:34:51;0.70;99.90
28823;DHT22;15961;54.678;9.110;2022-11-20T02:37:17;0.70;99.90
28823;DHT22;15961;54.678;9.110;2022-11-20T02:39:45;0.80;99.90
28823;DHT22;15961;54.678;9.110;2022-11-20T02:42:11;0.70;99.90
28823;DHT22;15961;54.678;9.110;2022-11-20T02:44:37;0.80;99.90
28823;DHT22;15961;54.678;9.110;2022-11-20T02:47:02;0.80;99.90
28823;DHT22;15961;54.678;9.110;2022-11-20T02:49:28;0.70;99.90
28823;DHT22;15961;54.678;9.110;2022-11-20T02:51:54;0.70;99.90
28823;DHT22;15961;54.678;9.110;2022-11-20T02:54:19;0.70;99.90
28823;DHT22;15961;54.678;9.110;2022-11-20T02:56:44;0.70;99.90
28823;DHT22;15961;54.678;9.110;2022-11-20T02:59:10;0.70;99.90
28823;DHT22;15961;54.678;9.110;2022-11-20T03:01:36;0.70;99.90
28823;DHT22;15961;54.678;9.110;2022-11-20T03:04:01;0.80;99.90
28823;DHT22;15961;54.678;9.110;2022-11-20T03:06:27;0.80;99.90
28823;DHT22;15961;54.678;9.110;2022-11-20T03:08:53;0.80;99.90
28823;DHT22;15961;54.678;9.110;2022-11-20T03:11:19;0.70;99.90
28823;DHT22;15961;54.678;9.110;2022-11-20T03:13:45;0.70;99.90
28823;DHT22;15961;54.678;9.110;2022-11-20T03:16:13;0.70;99.90
28823;DHT22;15961;54.678;9.110;2022-11-20T03:18:40;0.70;99.90
28823;DHT22;15961;54.678;9.110;2022-11-20T03:21:07;0.70;99.90
28823;DHT22;15961;54.678;9.110;2022-11-20T03:23:33;0.70;99.90
28823;DHT22;15961;54.678;9.110;2022-11-20T03:26:14;0.70;99.90
28823;DHT22;15961;54.678;9.110;2022-11-20T03:28:40;0.80;99.90
28823;DHT22;15961;54.678;9.110;2022-11-20T03:31:12;0.80;99.90
28823;DHT22;15961;54.678;9.110;2022-11-20T03:33:38;0.90;99.90
28823;DHT22;15961;54.678;9.110;2022-11-20T03:36:06;0.90;99.90
28823;DHT22;15961;54.678;9.110;2022-11-20T03:38:32;1.00;99.90
28823;DHT22;15961;54.678;9.110;2022-11-20T03:41:20;1.00;99.90
28823;DHT22;15961;54.678;9.110;2022-11-20T03:46:17;1.00;99.90
28823;DHT22;15961;54.678;9.110;2022-11-20T03:48:42;1.10;99.90
28823;DHT22;15961;54.678;9.110;2022-11-20T03:53:33;1.20;99.90
28823;DHT22;15961;54.678;9.110;2022-11-20T03:55:59;1.20;99.90
28823;DHT22;15961;54.678;9.110;2022-11-20T03:58:24;1.20;99.90
28823;DHT22;15961;54.678;9.110;2022-11-20T04:00:50;1.20;99.90
28823;DHT22;15961;54.678;9.110;2022-11-20T04:03:15;1.20;99.90
28823;DHT22;15961;54.678;9.110;2022-11-20T04:05:41;1.20;99.90
28823;DHT22;15961;54.678;9.110;2022-11-20T04:08:07;1.20;99.90
28823;DHT22;15961;54.678;9.110;2022-11-20T04:10:32;1.20;99.90
28823;DHT22;15961;54.678;9.110;2022-11-20T04:12:58;1.20;99.90
28823;DHT22;15961;54.678;9.110;2022-11-20T04:15:23;1.20;99.90
28823;DHT22;15961;54.678;9.110;2022-11-20T04:17:49;1.10;99.90
28823;DHT22;15961;54.678;9.110;2022-11-20T04:20:14;1.10;99.90
28823;DHT22;15961;54.678;9.110;2022-11-20T04:22:40;1.20;99.90
28823;DHT22;15961;54.678;9.110;2022-11-20T04:25:05;1.20;99.90
28823;DHT22;15961;54.678;9.110;2022-11-20T04:27:31;1.10;99.90
28823;DHT22;15961;54.678;9.110;2022-11-20T04:29:56;1.10;99.90
28823;DHT22;15961;54.678;9.110;2022-11-20T04:32:22;1.10;99.90
28823;DHT22;15961;54.678;9.110;2022-11-20T04:34:47;1.10;99.90
28823;DHT22;15961;54.678;9.110;2022-11-20T04:37:13;1.10;99.90
28823;DHT22;15961;54.678;9.110;2022-11-20T04:39:38;1.10;99.90
28823;DHT22;15961;54.678;9.110;2022-11-20T04:42:04;1.10;99.90
28823;DHT22;15961;54.678;9.110;2022-11-20T04:44:48;1.10;99.90
28823;DHT22;15961;54.678;9.110;2022-11-20T04:47:13;1.10;99.90
28823;DHT22;15961;54.678;9.110;2022-11-20T04:49:39;1.10;99.90
28823;DHT22;15961;54.678;9.110;2022-11-20T04:52:05;1.00;99.90
28823;DHT22;15961;54.678;9.110;2022-11-20T04:54:30;1.10;99.90
28823;DHT22;15961;54.678;9.110;2022-11-20T04:56:56;1.10;99.90
28823;DHT22;15961;54.678;9.110;2022-11-20T04:59:22;1.00;99.90
28823;DHT22;15961;54.678;9.110;2022-11-20T05:04:18;1.00;99.90
28823;DHT22;15961;54.678;9.110;2022-11-20T05:06:43;0.90;99.90
28823;DHT22;15961;54.678;9.110;2022-11-20T05:09:11;0.90;99.90
28823;DHT22;15961;54.678;9.110;2022-11-20T05:11:36;0.90;99.90
28823;DHT22;15961;54.678;9.110;2022-11-20T05:14:02;0.80;99.90
28823;DHT22;15961;54.678;9.110;2022-11-20T05:16:27;0.80;99.90
28823;DHT22;15961;54.678;9.110;2022-11-20T05:18:53;0.80;99.90
28823;DHT22;15961;54.678;9.110;2022-11-20T05:21:20;0.80;99.90
28823;DHT22;15961;54.678;9.110;2022-11-20T05:23:46;0.80;99.90
28823;DHT22;15961;54.678;9.110;2022-11-20T05:26:14;0.80;99.90
28823;DHT22;15961;54.678;9.110;2022-11-20T05:28:40;0.80;99.90
28823;DHT22;15961;54.678;9.110;2022-11-20T05:31:11;0.80;99.90
28823;DHT22;15961;54.678;9.110;2022-11-20T05:33:40;0.80;99.90
28823;DHT22;15961;54.678;9.110;2022-11-20T05:36:06;0.80;99.90
28823;DHT22;15961;54.678;9.110;2022-11-20T05:38:32;0.80;99.90
28823;DHT22;15961;54.678;9.110;2022-11-20T05:41:06;0.80;99.90
28823;DHT22;15961;54.678;9.110;2022-11-20T05:43:35;0.80;99.90
28823;DHT22;15961;54.678;9.110;2022-11-20T05:46:02;0.70;99.90
28823;DHT22;15961;54.678;9.110;2022-11-20T05:48:27;0.70;99.90
28823;DHT22;15961;54.678;9.110;2022-11-20T05:50:53;0.60;99.90
28823;DHT22;15961;54.678;9.110;2022-11-20T05:53:18;0.50;99.90
28823;DHT22;15961;54.678;9.110;2022-11-20T05:55:44;0.40;99.90
28823;DHT22;15961;54.678;9.110;2022-11-20T05:58:09;0.20;99.90
28823;DHT22;15961;54.678;9.110;2022-11-20T06:00:35;0.10;99.90
28823;DHT22;15961;54.678;9.110;2022-11-20T06:03:01;0.10;99.90
28823;DHT22;15961;54.678;9.110;2022-11-20T06:05:26;0.00;99.90
28823;DHT22;15961;54.678;9.110;2022-11-20T06:07:52;-0.20;99.90
28823;DHT22;15961;54.678;9.110;2022-11-20T06:10:17;-0.30;99.90
28823;DHT22;15961;54.678;9.110;2022-11-20T06:12:43;-0.40;99.90
28823;DHT22;15961;54.678;9.110;2022-11-20T06:15:09;-0.50;99.90
28823;DHT22;15961;54.678;9.110;2022-11-20T06:17:34;-0.30;99.90
28823;DHT22;15961;54.678;9.110;2022-11-20T06:20:00;-0.30;99.90
28823;DHT22;15961;54.678;9.110;2022-11-20T06:22:26;-0.30;99.90
28823;DHT22;15961;54.678;9.110;2022-11-20T06:24:51;-0.40;99.90
28823;DHT22;15961;54.678;9.110;2022-11-20T06:27:17;-0.60;99.90
28823;DHT22;15961;54.678;9.110;2022-11-20T06:29:43;-0.60;99.90
28823;DHT22;15961;54.678;9.110;2022-11-20T06:32:08;-0.60;99.90
28823;DHT22;15961;54.678;9.110;2022-11-20T06:34:34;-0.70;99.90
28823;DHT22;15961;54.678;9.110;2022-11-20T06:36:59;-0.80;99.90
28823;DHT22;15961;54.678;9.110;2022-11-20T06:39:25;-0.90;99.90
28823;DHT22;15961;54.678;9.110;2022-11-20T06:41:50;-1.10;99.90
28823;DHT22;15961;54.678;9.110;2022-11-20T06:44:16;-1.10;99.90
28823;DHT22;15961;54.678;9.110;2022-11-20T06:46:41;-1.20;99.90
28823;DHT22;15961;54.678;9.110;2022-11-20T06:49:07;-1.30;99.90
28823;DHT22;15961;54.678;9.110;2022-11-20T06:51:32;-1.30;99.90
28823;DHT22;15961;54.678;9.110;2022-11-20T06:53:58;-1.40;99.90
28823;DHT22;15961;54.678;9.110;2022-11-20T06:56:24;-1.40;99.90
28823;DHT22;15961;54.678;9.110;2022-11-20T06:58:49;-1.30;99.90
28823;DHT22;15961;54.678;9.110;2022-11-20T07:01:15;-1.30;99.90
28823;DHT22;15961;54.678;9.110;2022-11-20T07:03:41;-1.30;99.90
28823;DHT22;15961;54.678;9.110;2022-11-20T07:06:08;-1.30;99.90
28823;DHT22;15961;54.678;9.110;2022-11-20T07:08:34;-1.40;99.90
28823;DHT22;15961;54.678;9.110;2022-11-20T07:11:02;-1.40;99.90
28823;DHT22;15961;54.678;9.110;2022-11-20T07:13:28;-1.40;99.90
28823;DHT22;15961;54.678;9.110;2022-11-20T07:15:54;-1.50;99.90
28823;DHT22;15961;54.678;9.110;2022-11-20T07:18:20;-1.60;99.90
28823;DHT22;15961;54.678;9.110;2022-11-20T07:20:45;-1.50;99.90
28823;DHT22;15961;54.678;9.110;2022-11-20T07:23:11;-1.30;99.90
28823;DHT22;15961;54.678;9.110;2022-11-20T07:25:36;-1.20;99.90
28823;DHT22;15961;54.678;9.110;2022-11-20T07:28:02;-1.10;99.90
28823;DHT22;15961;54.678;9.110;2022-11-20T07:30:28;-1.00;99.90
28823;DHT22;15961;54.678;9.110;2022-11-20T07:32:55;-0.90;99.90
28823;DHT22;15961;54.678;9.110;2022-11-20T07:35:21;-0.90;99.90
28823;DHT22;15961;54.678;9.110;2022-11-20T07:37:47;-0.70;99.90
28823;DHT22;15961;54.678;9.110;2022-11-20T07:40:14;-0.60;99.90
28823;DHT22;15961;54.678;9.110;2022-11-20T07:42:50;-0.50;99.90
28823;DHT22;15961;54.678;9.110;2022-11-20T07:45:17;-0.40;99.90
28823;DHT22;15961;54.678;9.110;2022-11-20T07:47:43;-0.40;99.90
28823;DHT22;15961;54.678;9.110;2022-11-20T07:50:09;-0.40;99.90
28823;DHT22;15961;54.678;9.110;2022-11-20T07:52:35;-0.30;99.90
28823;DHT22;15961;54.678;9.110;2022-11-20T07:55:00;-0.20;99.90
28823;DHT22;15961;54.678;9.110;2022-11-20T07:57:26;-0.20;99.90
28823;DHT22;15961;54.678;9.110;2022-11-20T07:59:51;-0.10;99.90
28823;DHT22;15961;54.678;9.110;2022-11-20T08:02:17;-0.10;99.90
28823;DHT22;15961;54.678;9.110;2022-11-20T08:04:42;-0.10;99.90
28823;DHT22;15961;54.678;9.110;2022-11-20T08:07:08;-0.20;99.90
28823;DHT22;15961;54.678;9.110;2022-11-20T08:09:33;-0.20;99.90
28823;DHT22;15961;54.678;9.110;2022-11-20T08:11:59;-0.30;99.90
28823;DHT22;15961;54.678;9.110;2022-11-20T08:14:48;-0.30;99.90
28823;DHT22;15961;54.678;9.110;2022-11-20T08:17:13;-0.40;99.90
28823;DHT22;15961;54.678;9.110;2022-11-20T08:19:39;-0.30;99.90
28823;DHT22;15961;54.678;9.110;2022-11-20T08:22:04;-0.20;99.90
28823;DHT22;15961;54.678;9.110;2022-11-20T08:24:30;-0.20;99.90
28823;DHT22;15961;54.678;9.110;2022-11-20T08:26:57;-0.20;99.90
28823;DHT22;15961;54.678;9.110;2022-11-20T08:29:25;-0.10;99.90
28823;DHT22;15961;54.678;9.110;2022-11-20T08:31:51;-0.10;99.90
28823;DHT22;15961;54.678;9.110;2022-11-20T08:34:16;-0.10;99.90
28823;DHT22;15961;54.678;9.110;2022-11-20T08:36:42;0.00;99.90
28823;DHT22;15961;54.678;9.110;2022-11-20T08:39:07;0.00;99.90
28823;DHT22;15961;54.678;9.110;2022-11-20T08:41:33;-0.10;99.90
28823;DHT22;15961;54.678;9.110;2022-11-20T08:44:00;0.00;99.90
28823;DHT22;15961;54.678;9.110;2022-11-20T08:46:31;0.20;99.90
28823;DHT22;15961;54.678;9.110;2022-11-20T08:48:58;0.40;99.90
28823;DHT22;15961;54.678;9.110;2022-11-20T08:51:24;0.60;99.90
28823;DHT22;15961;54.678;9.110;2022-11-20T08:53:49;0.70;99.90
28823;DHT22;15961;54.678;9.110;2022-11-20T08:56:15;0.80;99.90
28823;DHT22;15961;54.678;9.110;2022-11-20T08:58:41;0.90;99.90
28823;DHT22;15961;54.678;9.110;2022-11-20T09:01:07;1.10;99.90
28823;DHT22;15961;54.678;9.110;2022-11-20T09:03:32;1.20;99.90
28823;DHT22;15961;54.678;9.110;2022-11-20T09:06:03;1.30;99.90
28823;DHT22;15961;54.678;9.110;2022-11-20T09:08:30;1.30;99.90
28823;DHT22;15961;54.678;9.110;2022-11-20T09:10:56;1.30;99.90
28823;DHT22;15961;54.678;9.110;2022-11-20T09:13:23;1.40;99.90
28823;DHT22;15961;54.678;9.110;2022-11-20T09:15:58;1.40;99.90
28823;DHT22;15961;54.678;9.110;2022-11-20T09:18:25;1.40;99.90
28823;DHT22;15961;54.678;9.110;2022-11-20T09:20:51;1.40;99.90
28823;DHT22;15961;54.678;9.110;2022-11-20T09:23:17;1.50;99.90
28823;DHT22;15961;54.678;9.110;2022-11-20T09:25:43;1.60;99.90
28823;DHT22;15961;54.678;9.110;2022-11-20T09:28:08;1.60;99.90
28823;DHT22;15961;54.678;9.110;2022-11-20T09:30:34;1.60;99.90
28823;DHT22;15961;54.678;9.110;2022-11-20T09:33:00;1.60;99.90
28823;DHT22;15961;54.678;9.110;2022-11-20T09:35:25;1.60;99.90
28823;DHT22;15961;54.678;9.110;2022-11-20T09:37:51;1.60;99.90
28823;DHT22;15961;54.678;9.110;2022-11-20T09:40:22;1.70;99.90
28823;DHT22;15961;54.678;9.110;2022-11-20T09:42:56;1.70;99.90
28823;DHT22;15961;54.678;9.110;2022-11-20T09:45:41;1.80;99.90
28823;DHT22;15961;54.678;9.110;2022-11-20T09:54:18;2.20;99.90
28823;DHT22;15961;54.678;9.110;2022-11-20T09:56:48;2.30;99.90
28823;DHT22;15961;54.678;9.110;2022-11-20T09:59:41;2.50;99.90
28823;DHT22;15961;54.678;9.110;2022-11-20T10:05:39;2.70;99.90
28823;DHT22;15961;54.678;9.110;2022-11-20T10:10:45;2.60;99.90
28823;DHT22;15961;54.678;9.110;2022-11-20T10:24:32;2.00;99.90
28823;DHT22;15961;54.678;9.110;2022-11-20T10:32:43;1.90;99.90
28823;DHT22;15961;54.678;9.110;2022-11-20T10:35:26;2.00;99.90
28823;DHT22;15961;54.678;9.110;2022-11-20T10:38:07;2.10;99.90
28823;DHT22;15961;54.678;9.110;2022-11-20T10:40:38;2.10;99.90
28823;DHT22;15961;54.678;9.110;2022-11-20T10:43:21;2.20;99.90
28823;DHT22;15961;54.678;9.110;2022-11-20T10:46:01;2.30;99.90
28823;DHT22;15961;54.678;9.110;2022-11-20T10:48:29;2.30;99.90
28823;DHT22;15961;54.678;9.110;2022-11-20T10:51:21;2.40;99.90
28823;DHT22;15961;54.678;9.110;2022-11-20T10:56:44;2.50;99.90
28823;DHT22;15961;54.678;9.110;2022-11-20T11:02:00;2.60;99.90
28823;DHT22;15961;54.678;9.110;2022-11-20T11:09:50;2.80;99.90
28823;DHT22;15961;54.678;9.110;2022-11-20T11:12:17;2.80;99.90
28823;DHT22;15961;54.678;9.110;2022-11-20T11:14:45;2.80;99.90
28823;DHT22;15961;54.678;9.110;2022-11-20T11:17:28;2.90;99.90
28823;DHT22;15961;54.678;9.110;2022-11-20T11:22:29;2.90;99.90
28823;DHT22;15961;54.678;9.110;2022-11-20T11:24:56;2.90;99.90
28823;DHT22;15961;54.678;9.110;2022-11-20T11:27:21;3.00;99.90
28823;DHT22;15961;54.678;9.110;2022-11-20T11:29:47;2.90;99.90
28823;DHT22;15961;54.678;9.110;2022-11-20T11:32:14;2.90;99.90
28823;DHT22;15961;54.678;9.110;2022-11-20T11:34:40;2.90;99.90
28823;DHT22;15961;54.678;9.110;2022-11-20T11:37:15;3.00;99.90
28823;DHT22;15961;54.678;9.110;2022-11-20T11:39:43;3.10;99.90
28823;DHT22;15961;54.678;9.110;2022-11-20T11:42:14;3.20;99.90
28823;DHT22;15961;54.678;9.110;2022-11-20T11:44:45;3.30;99.90
28823;DHT22;15961;54.678;9.110;2022-11-20T11:52:58;3.50;99.90
28823;DHT22;15961;54.678;9.110;2022-11-20T11:56:08;3.50;99.90
28823;DHT22;15961;54.678;9.110;2022-11-20T11:58:51;3.50;99.90
28823;DHT22;15961;54.678;9.110;2022-11-20T12:01:45;3.60;99.90
28823;DHT22;15961;54.678;9.110;2022-11-20T12:07:22;3.60;99.90
28823;DHT22;15961;54.678;9.110;2022-11-20T12:09:54;3.70;99.90
28823;DHT22;15961;54.678;9.110;2022-11-20T12:12:33;3.60;99.90
28823;DHT22;15961;54.678;9.110;2022-11-20T12:15:02;3.70;99.90
28823;DHT22;15961;54.678;9.110;2022-11-20T12:17:29;3.80;99.90
28823;DHT22;15961;54.678;9.110;2022-11-20T12:19:55;3.90;99.90
28823;DHT22;15961;54.678;9.110;2022-11-20T12:23:05;4.10;99.90
28823;DHT22;15961;54.678;9.110;2022-11-20T12:25:36;4.50;99.90
28823;DHT22;15961;54.678;9.110;2022-11-20T12:31:12;4.90;99.90
28823;DHT22;15961;54.678;9.110;2022-11-20T12:42:13;5.80;99.90
28823;DHT22;15961;54.678;9.110;2022-11-20T12:54:14;6.30;99.90
28823;DHT22;15961;54.678;9.110;2022-11-20T13:01:56;7.60;99.90
28823;DHT22;15961;54.678;9.110;2022-11-20T13:04:39;8.10;99.90
28823;DHT22;15961;54.678;9.110;2022-11-20T13:07:12;8.40;99.90
28823;DHT22;15961;54.678;9.110;2022-11-20T13:09:46;8.10;99.90
28823;DHT22;15961;54.678;9.110;2022-11-20T13:12:17;7.90;99.90
28823;DHT22;15961;54.678;9.110;2022-11-20T13:17:52;7.20;99.90
28823;DHT22;15961;54.678;9.110;2022-11-20T13:20:19;6.80;99.90
28823;DHT22;15961;54.678;9.110;2022-11-20T13:22:47;6.30;99.90
28823;DHT22;15961;54.678;9.110;2022-11-20T13:25:29;6.20;99.90
28823;DHT22;15961;54.678;9.110;2022-11-20T13:27:57;6.00;99.90
28823;DHT22;15961;54.678;9.110;2022-11-20T13:30:27;5.80;99.90
28823;DHT22;15961;54.678;9.110;2022-11-20T13:32:57;5.70;99.90
28823;DHT22;15961;54.678;9.110;2022-11-20T13:35:36;5.60;99.90
28823;DHT22;15961;54.678;9.110;2022-11-20T13:38:11;5.50;99.90
28823;DHT22;15961;54.678;9.110;2022-11-20T13:40:50;5.30;99.90
28823;DHT22;15961;54.678;9.110;2022-11-20T13:43:22;5.20;99.90
28823;DHT22;15961;54.678;9.110;2022-11-20T13:46:15;5.40;99.90
28823;DHT22;15961;54.678;9.110;2022-11-20T13:48:43;5.60;99.90
28823;DHT22;15961;54.678;9.110;2022-11-20T13:51:38;5.50;99.90
28823;DHT22;15961;54.678;9.110;2022-11-20T13:54:34;5.40;99.90
28823;DHT22;15961;54.678;9.110;2022-11-20T14:00:11;4.70;99.90
28823;DHT22;15961;54.678;9.110;2022-11-20T14:02:38;4.50;99.90
28823;DHT22;15961;54.678;9.110;2022-11-20T14:05:04;4.40;99.90
28823;DHT22;15961;54.678;9.110;2022-11-20T14:07:41;4.30;99.90
28823;DHT22;15961;54.678;9.110;2022-11-20T14:10:27;4.30;99.90
28823;DHT22;15961;54.678;9.110;2022-11-20T14:12:53;4.30;99.90
28823;DHT22;15961;54.678;9.110;2022-11-20T14:15:30;4.20;99.90
28823;DHT22;15961;54.678;9.110;2022-11-20T14:17:57;4.00;99.90
28823;DHT22;15961;54.678;9.110;2022-11-20T14:20:26;3.80;99.90
28823;DHT22;15961;54.678;9.110;2022-11-20T14:22:55;3.60;99.90
28823;DHT22;15961;54.678;9.110;2022-11-20T14:25:27;3.40;99.90
28823;DHT22;15961;54.678;9.110;2022-11-20T14:27:57;3.40;99.90
28823;DHT22;15961;54.678;9.110;2022-11-20T14:30:26;3.20;99.90
28823;DHT22;15961;54.678;9.110;2022-11-20T14:32:54;2.90;99.90
28823;DHT22;15961;54.678;9.110;2022-11-20T14:35:27;2.60;99.90
28823;DHT22;15961;54.678;9.110;2022-11-20T14:37:54;2.30;99.90
28823;DHT22;15961;54.678;9.110;2022-11-20T14:40:25;2.10;99.90
28823;DHT22;15961;54.678;9.110;2022-11-20T14:42:51;1.90;99.90
28823;DHT22;15961;54.678;9.110;2022-11-20T14:45:17;1.70;99.90
28823;DHT22;15961;54.678;9.110;2022-11-20T14:47:43;1.50;99.90
28823;DHT22;15961;54.678;9.110;2022-11-20T14:50:23;1.40;99.90
28823;DHT22;15961;54.678;9.110;2022-11-20T14:52:50;1.30;99.90
28823;DHT22;15961;54.678;9.110;2022-11-20T14:55:32;1.10;99.90
28823;DHT22;15961;54.678;9.110;2022-11-20T14:58:04;1.00;99.90
28823;DHT22;15961;54.678;9.110;2022-11-20T15:00:32;0.80;99.90
28823;DHT22;15961;54.678;9.110;2022-11-20T15:02:58;0.70;99.90
28823;DHT22;15961;54.678;9.110;2022-11-20T15:05:36;0.60;99.90
28823;DHT22;15961;54.678;9.110;2022-11-20T15:08:10;0.50;99.90
28823;DHT22;15961;54.678;9.110;2022-11-20T15:10:36;0.40;99.90
28823;DHT22;15961;54.678;9.110;2022-11-20T15:13:06;0.30;99.90
28823;DHT22;15961;54.678;9.110;2022-11-20T15:15:43;0.10;99.90
28823;DHT22;15961;54.678;9.110;2022-11-20T15:18:24;0.00;99.90
28823;DHT22;15961;54.678;9.110;2022-11-20T15:20:52;-0.10;99.90
28823;DHT22;15961;54.678;9.110;2022-11-20T15:23:19;-0.20;99.90
28823;DHT22;15961;54.678;9.110;2022-11-20T15:25:45;-0.30;99.90
28823;DHT22;15961;54.678;9.110;2022-11-20T15:28:32;-0.40;99.90
28823;DHT22;15961;54.678;9.110;2022-11-20T15:30:59;-0.40;99.90
28823;DHT22;15961;54.678;9.110;2022-11-20T15:33:25;-0.50;99.90
28823;DHT22;15961;54.678;9.110;2022-11-20T15:35:50;-0.60;99.90
28823;DHT22;15961;54.678;9.110;2022-11-20T15:38:22;-0.70;99.90
28823;DHT22;15961;54.678;9.110;2022-11-20T15:40:48;-0.80;99.90
28823;DHT22;15961;54.678;9.110;2022-11-20T15:43:14;-0.80;99.90
28823;DHT22;15961;54.678;9.110;2022-11-20T15:45:45;-0.90;99.90
28823;DHT22;15961;54.678;9.110;2022-11-20T15:48:15;-1.00;99.90
28823;DHT22;15961;54.678;9.110;2022-11-20T15:53:12;-1.00;99.90
28823;DHT22;15961;54.678;9.110;2022-11-20T15:55:38;-1.00;99.90
28823;DHT22;15961;54.678;9.110;2022-11-20T15:58:04;-1.00;99.90
28823;DHT22;15961;54.678;9.110;2022-11-20T16:00:29;-1.10;99.90
28823;DHT22;15961;54.678;9.110;2022-11-20T16:02:55;-1.10;99.90
28823;DHT22;15961;54.678;9.110;2022-11-20T16:05:21;-1.10;99.90
28823;DHT22;15961;54.678;9.110;2022-11-20T16:07:48;-1.20;99.90
28823;DHT22;15961;54.678;9.110;2022-11-20T16:10:15;-1.20;99.90
28823;DHT22;15961;54.678;9.110;2022-11-20T16:12:40;-1.40;99.90
28823;DHT22;15961;54.678;9.110;2022-11-20T16:15:24;-1.50;99.90
28823;DHT22;15961;54.678;9.110;2022-11-20T16:18:10;-1.50;99.90
28823;DHT22;15961;54.678;9.110;2022-11-20T16:20:35;-1.60;99.90
28823;DHT22;15961;54.678;9.110;2022-11-20T16:23:01;-1.70;99.90
28823;DHT22;15961;54.678;9.110;2022-11-20T16:25:27;-1.70;99.90
28823;DHT22;15961;54.678;9.110;2022-11-20T16:27:52;-1.80;99.90
28823;DHT22;15961;54.678;9.110;2022-11-20T16:30:18;-1.90;99.90
28823;DHT22;15961;54.678;9.110;2022-11-20T16:32:44;-2.00;99.90
28823;DHT22;15961;54.678;9.110;2022-11-20T16:35:09;-2.00;99.90
28823;DHT22;15961;54.678;9.110;2022-11-20T16:37:35;-2.00;99.90
28823;DHT22;15961;54.678;9.110;2022-11-20T16:40:00;-2.10;99.90
28823;DHT22;15961;54.678;9.110;2022-11-20T16:42:26;-2.10;99.90
28823;DHT22;15961;54.678;9.110;2022-11-20T16:44:51;-2.20;99.90
28823;DHT22;15961;54.678;9.110;2022-11-20T16:47:17;-2.20;99.90
28823;DHT22;15961;54.678;9.110;2022-11-20T16:49:42;-2.20;99.90
28823;DHT22;15961;54.678;9.110;2022-11-20T16:52:08;-2.20;99.90
28823;DHT22;15961;54.678;9.110;2022-11-20T16:54:33;-2.20;99.90
28823;DHT22;15961;54.678;9.110;2022-11-20T16:56:59;-2.20;99.90
28823;DHT22;15961;54.678;9.110;2022-11-20T16:59:24;-2.30;99.90
28823;DHT22;15961;54.678;9.110;2022-11-20T17:01:50;-2.30;99.90
28823;DHT22;15961;54.678;9.110;2022-11-20T17:04:16;-2.40;99.90
28823;DHT22;15961;54.678;9.110;2022-11-20T17:06:43;-2.40;99.90
28823;DHT22;15961;54.678;9.110;2022-11-20T17:09:09;-2.40;99.90
28823;DHT22;15961;54.678;9.110;2022-11-20T17:11:35;-2.40;99.90
28823;DHT22;15961;54.678;9.110;2022-11-20T17:14:02;-2.50;99.90
28823;DHT22;15961;54.678;9.110;2022-11-20T17:16:29;-2.50;99.90
28823;DHT22;15961;54.678;9.110;2022-11-20T17:18:56;-2.50;99.90
28823;DHT22;15961;54.678;9.110;2022-11-20T17:21:22;-2.60;99.90
28823;DHT22;15961;54.678;9.110;2022-11-20T17:23:47;-2.60;99.90
28823;DHT22;15961;54.678;9.110;2022-11-20T17:26:21;-2.60;99.90
28823;DHT22;15961;54.678;9.110;2022-11-20T17:28:58;-2.60;99.90
28823;DHT22;15961;54.678;9.110;2022-11-20T17:31:25;-2.70;99.90
28823;DHT22;15961;54.678;9.110;2022-11-20T17:33:51;-2.70;99.90